TJBQ/BQN METAR and TAF weather

Enter ICAO airport designator
Station Type Date Time Source
TJBQ METAR 2019/10/23 01:50 UTC NOAA

TJBQ 230150Z 11004KT 10SM CLR 25/23 A2994 RMK LTG DSNT N


Station Type Date Time Source
TJBQ Decoded METAR 2019/10/23 01:50 UTC NOAA

Aquadilla, Rafael Hernandez Airport, PR, United States (TJBQ) 18-30N 067-08W 69M
Oct 22, 2019 - 09:50 PM EDT / 2019.10.23 0150 UTC
Wind: from the ESE (110 degrees) at 5 MPH (4 KT):0
Visibility: 10 mile(s):0
Sky conditions: clear
Weather: Lightning observed
Temperature: 77 F (25 C)
Dew Point: 73 F (23 C)
Relative Humidity: 88%
Pressure (altimeter): 29.94 in. Hg (1013 hPa)
ob: TJBQ 230150Z 11004KT 10SM CLR 25/23 A2994 RMK LTG DSNT N
cycle: 2

Station Type Date Time Source
TJBQ TAF 2019/10/22 22:57 UTC NOAA

TAF TJBQ 222153Z 2222/2318 08010KT P6SM VCTS SCT030CB SCT060
FM222300 VRB05KT P6SM VCSH FEW025
FM231400 07008KT P6SM FEW025

Example: see airport list